sensor_id;sensor_type;location;lat;lon;timestamp;P1;durP1;ratioP1;P2;durP2;ratioP2
31454;SDS011;18084;53.028;8.834;2022-08-04T11:07:52;2.97;;;1.80;;
31454;SDS011;18084;53.028;8.834;2022-08-04T11:14:18;8.65;;;1.60;;
31454;SDS011;18084;53.028;8.834;2022-08-04T11:23:37;3.65;;;1.40;;
31454;SDS011;18084;53.028;8.834;2022-08-04T11:33:10;7.97;;;1.70;;
31454;SDS011;18084;53.028;8.834;2022-08-04T11:52:11;2.20;;;1.67;;
31454;SDS011;18084;53.028;8.834;2022-08-04T11:55:14;5.03;;;1.40;;
31454;SDS011;18084;53.028;8.834;2022-08-04T11:57:53;3.88;;;1.60;;
31454;SDS011;18084;53.028;8.834;2022-08-04T12:04:23;2.15;;;1.52;;
31454;SDS011;18084;53.028;8.834;2022-08-04T12:07:21;8.32;;;1.35;;
31454;SDS011;18084;53.028;8.834;2022-08-04T12:10:16;3.65;;;1.50;;
31454;SDS011;18084;53.028;8.834;2022-08-04T12:16:09;5.22;;;1.50;;
31454;SDS011;18084;53.028;8.834;2022-08-04T12:18:53;9.00;;;1.65;;
31454;SDS011;18084;53.028;8.834;2022-08-04T12:24:53;5.10;;;1.67;;
31454;SDS011;18084;53.028;8.834;2022-08-04T12:27:59;3.25;;;1.58;;
31454;SDS011;18084;53.028;8.834;2022-08-04T12:30:42;3.80;;;1.45;;
31454;SDS011;18084;53.028;8.834;2022-08-04T12:37:01;1.98;;;1.60;;
31454;SDS011;18084;53.028;8.834;2022-08-04T12:46:08;1.90;;;1.10;;
31454;SDS011;18084;53.028;8.834;2022-08-04T12:48:59;2.70;;;1.00;;
31454;SDS011;18084;53.028;8.834;2022-08-04T12:51:27;1.63;;;0.95;;
31454;SDS011;18084;53.028;8.834;2022-08-04T12:53:54;7.05;;;1.10;;
31454;SDS011;18084;53.028;8.834;2022-08-04T12:56:45;2.10;;;1.30;;
31454;SDS011;18084;53.028;8.834;2022-08-04T12:59:17;2.63;;;1.48;;
31454;SDS011;18084;53.028;8.834;2022-08-04T13:01:59;2.22;;;1.20;;
31454;SDS011;18084;53.028;8.834;2022-08-04T13:04:25;2.55;;;1.95;;
31454;SDS011;18084;53.028;8.834;2022-08-04T13:06:55;3.80;;;1.40;;
31454;SDS011;18084;53.028;8.834;2022-08-04T13:09:33;3.40;;;1.77;;
31454;SDS011;18084;53.028;8.834;2022-08-04T13:14:51;5.90;;;1.20;;
31454;SDS011;18084;53.028;8.834;2022-08-04T13:23:36;2.50;;;1.30;;
31454;SDS011;18084;53.028;8.834;2022-08-04T13:26:15;8.73;;;1.67;;
31454;SDS011;18084;53.028;8.834;2022-08-04T13:31:52;4.95;;;1.38;;
31454;SDS011;18084;53.028;8.834;2022-08-04T13:35:28;3.70;;;1.30;;
31454;SDS011;18084;53.028;8.834;2022-08-04T13:56:37;8.10;;;2.33;;
31454;SDS011;18084;53.028;8.834;2022-08-04T14:03:40;9.88;;;3.45;;
31454;SDS011;18084;53.028;8.834;2022-08-04T14:17:39;8.82;;;3.22;;
31454;SDS011;18084;53.028;8.834;2022-08-04T14:26:42;38.92;;;3.97;;
31454;SDS011;18084;53.028;8.834;2022-08-04T14:29:17;29.40;;;4.03;;
31454;SDS011;18084;53.028;8.834;2022-08-04T14:32:02;17.05;;;2.53;;
31454;SDS011;18084;53.028;8.834;2022-08-04T14:35:08;14.00;;;1.95;;
31454;SDS011;18084;53.028;8.834;2022-08-04T14:37:51;9.27;;;2.90;;
31454;SDS011;18084;53.028;8.834;2022-08-04T14:40:46;10.93;;;3.30;;
31454;SDS011;18084;53.028;8.834;2022-08-04T14:43:23;16.77;;;5.82;;
31454;SDS011;18084;53.028;8.834;2022-08-04T14:45:48;11.05;;;4.80;;
31454;SDS011;18084;53.028;8.834;2022-08-04T14:48:34;14.10;;;5.73;;
31454;SDS011;18084;53.028;8.834;2022-08-04T14:51:00;5.68;;;5.00;;
31454;SDS011;18084;53.028;8.834;2022-08-04T16:18:46;14.93;;;5.57;;
31454;SDS011;18084;53.028;8.834;2022-08-04T16:21:16;17.33;;;5.97;;
31454;SDS011;18084;53.028;8.834;2022-08-04T16:23:54;7.95;;;4.43;;
31454;SDS011;18084;53.028;8.834;2022-08-04T16:26:40;10.57;;;4.18;;
31454;SDS011;18084;53.028;8.834;2022-08-04T16:34:46;11.15;;;3.15;;
31454;SDS011;18084;53.028;8.834;2022-08-04T16:37:21;11.05;;;3.60;;
31454;SDS011;18084;53.028;8.834;2022-08-04T16:39:48;7.15;;;3.05;;
31454;SDS011;18084;53.028;8.834;2022-08-04T16:45:09;6.00;;;3.22;;
31454;SDS011;18084;53.028;8.834;2022-08-04T16:50:16;6.03;;;2.65;;
31454;SDS011;18084;53.028;8.834;2022-08-04T16:55:17;7.63;;;4.05;;
31454;SDS011;18084;53.028;8.834;2022-08-04T16:57:51;7.30;;;2.70;;
31454;SDS011;18084;53.028;8.834;2022-08-04T17:00:26;4.80;;;2.70;;
31454;SDS011;18084;53.028;8.834;2022-08-04T17:03:06;9.57;;;2.97;;
31454;SDS011;18084;53.028;8.834;2022-08-04T17:05:33;4.68;;;2.78;;
31454;SDS011;18084;53.028;8.834;2022-08-04T17:08:01;7.03;;;3.97;;
31454;SDS011;18084;53.028;8.834;2022-08-04T17:10:35;6.50;;;3.30;;
31454;SDS011;18084;53.028;8.834;2022-08-04T17:15:51;9.18;;;3.17;;
31454;SDS011;18084;53.028;8.834;2022-08-04T17:18:20;8.23;;;3.00;;
31454;SDS011;18084;53.028;8.834;2022-08-04T17:20:48;5.43;;;3.03;;
31454;SDS011;18084;53.028;8.834;2022-08-04T17:23:21;3.17;;;2.67;;
31454;SDS011;18084;53.028;8.834;2022-08-04T17:26:06;6.93;;;2.65;;
31454;SDS011;18084;53.028;8.834;2022-08-04T17:28:37;3.33;;;2.28;;
31454;SDS011;18084;53.028;8.834;2022-08-04T17:38:24;4.50;;;1.92;;
31454;SDS011;18084;53.028;8.834;2022-08-04T17:41:20;5.63;;;2.00;;
31454;SDS011;18084;53.028;8.834;2022-08-04T17:43:51;14.05;;;3.10;;
31454;SDS011;18084;53.028;8.834;2022-08-04T17:46:34;8.05;;;2.25;;
31454;SDS011;18084;53.028;8.834;2022-08-04T17:54:11;5.93;;;2.10;;
31454;SDS011;18084;53.028;8.834;2022-08-04T17:56:40;4.47;;;2.15;;
31454;SDS011;18084;53.028;8.834;2022-08-04T18:01:55;8.73;;;2.40;;
31454;SDS011;18084;53.028;8.834;2022-08-04T18:04:29;4.05;;;1.95;;
31454;SDS011;18084;53.028;8.834;2022-08-04T18:07:12;10.82;;;2.13;;
31454;SDS011;18084;53.028;8.834;2022-08-04T18:12:43;4.75;;;2.50;;
31454;SDS011;18084;53.028;8.834;2022-08-04T18:15:20;6.00;;;2.08;;
31454;SDS011;18084;53.028;8.834;2022-08-04T18:17:52;2.95;;;2.20;;
31454;SDS011;18084;53.028;8.834;2022-08-04T18:20:23;7.28;;;2.20;;
31454;SDS011;18084;53.028;8.834;2022-08-04T18:22:50;6.57;;;2.17;;
31454;SDS011;18084;53.028;8.834;2022-08-04T18:25:18;7.68;;;2.03;;
31454;SDS011;18084;53.028;8.834;2022-08-04T18:27:48;9.23;;;2.58;;
31454;SDS011;18084;53.028;8.834;2022-08-04T18:30:18;11.82;;;2.45;;
31454;SDS011;18084;53.028;8.834;2022-08-04T18:32:45;4.28;;;2.15;;
31454;SDS011;18084;53.028;8.834;2022-08-04T18:35:11;6.93;;;2.47;;
31454;SDS011;18084;53.028;8.834;2022-08-04T18:37:37;9.30;;;2.50;;
31454;SDS011;18084;53.028;8.834;2022-08-04T18:40:04;10.10;;;2.63;;
31454;SDS011;18084;53.028;8.834;2022-08-04T18:42:31;7.40;;;2.55;;
31454;SDS011;18084;53.028;8.834;2022-08-04T18:44:57;4.25;;;2.05;;
31454;SDS011;18084;53.028;8.834;2022-08-04T18:47:23;7.53;;;2.58;;
31454;SDS011;18084;53.028;8.834;2022-08-04T18:49:52;4.63;;;2.35;;
31454;SDS011;18084;53.028;8.834;2022-08-04T18:52:18;12.93;;;2.30;;
31454;SDS011;18084;53.028;8.834;2022-08-04T18:54:43;8.02;;;2.47;;
31454;SDS011;18084;53.028;8.834;2022-08-04T18:57:09;4.75;;;2.17;;
31454;SDS011;18084;53.028;8.834;2022-08-04T18:59:35;9.35;;;2.00;;
31454;SDS011;18084;53.028;8.834;2022-08-04T19:02:01;4.03;;;2.22;;
31454;SDS011;18084;53.028;8.834;2022-08-04T19:04:26;5.15;;;2.08;;
31454;SDS011;18084;53.028;8.834;2022-08-04T19:06:52;7.25;;;2.75;;
31454;SDS011;18084;53.028;8.834;2022-08-04T19:09:21;9.25;;;2.83;;
31454;SDS011;18084;53.028;8.834;2022-08-04T19:12:06;7.65;;;2.75;;
31454;SDS011;18084;53.028;8.834;2022-08-04T19:14:35;10.32;;;3.05;;
31454;SDS011;18084;53.028;8.834;2022-08-04T19:17:01;7.63;;;2.50;;
31454;SDS011;18084;53.028;8.834;2022-08-04T19:19:26;12.07;;;3.78;;
31454;SDS011;18084;53.028;8.834;2022-08-04T19:21:52;10.05;;;3.08;;
31454;SDS011;18084;53.028;8.834;2022-08-04T19:24:17;17.27;;;4.00;;
31454;SDS011;18084;53.028;8.834;2022-08-04T19:26:43;12.80;;;3.95;;
31454;SDS011;18084;53.028;8.834;2022-08-04T19:29:09;14.40;;;3.95;;
31454;SDS011;18084;53.028;8.834;2022-08-04T19:31:34;9.55;;;3.72;;
31454;SDS011;18084;53.028;8.834;2022-08-04T19:34:00;8.15;;;3.85;;
31454;SDS011;18084;53.028;8.834;2022-08-04T19:36:27;8.68;;;3.90;;
31454;SDS011;18084;53.028;8.834;2022-08-04T19:38:54;11.85;;;4.65;;
31454;SDS011;18084;53.028;8.834;2022-08-04T19:41:21;15.70;;;5.63;;
31454;SDS011;18084;53.028;8.834;2022-08-04T19:43:49;20.33;;;6.30;;
31454;SDS011;18084;53.028;8.834;2022-08-04T19:46:15;14.30;;;4.88;;
31454;SDS011;18084;53.028;8.834;2022-08-04T19:48:41;22.48;;;5.65;;
31454;SDS011;18084;53.028;8.834;2022-08-04T19:51:08;15.07;;;5.47;;
31454;SDS011;18084;53.028;8.834;2022-08-04T19:53:33;17.65;;;5.68;;
31454;SDS011;18084;53.028;8.834;2022-08-04T19:55:59;21.55;;;6.07;;
31454;SDS011;18084;53.028;8.834;2022-08-04T19:58:24;20.40;;;6.80;;
31454;SDS011;18084;53.028;8.834;2022-08-04T20:00:50;19.25;;;6.65;;
31454;SDS011;18084;53.028;8.834;2022-08-04T20:03:16;16.40;;;7.30;;
